Archiv-/Tagesdaten

--Timestamp---	Temp	Chill	HIndex	Humid	Dewpt	 Wind 	HiWind	WindDir	Rain 	Barom	Solar	 ET  	 UV 
--------------	----	-----	------	-----	-----	------	------	-------	-----	-----	-----	-----	----
20100214 00:00	-4.9	-4.9	-4.9	82	-7.5	3	5	112	0.0	1014.5	0	0.000	0.0
20100214 00:05	-4.9	-4.9	-4.9	81	-7.7	2	5	112	0.0	1014.3	0	0.000	0.0
20100214 00:10	-4.9	-4.9	-4.9	81	-7.7	2	5	112	0.0	1014.3	0	0.000	0.0
20100214 00:15	-5.0	-5.0	-5.0	82	-7.6	2	5	112	0.0	1014.3	0	0.000	0.0
20100214 00:20	-5.0	-5.0	-5.0	81	-7.7	3	8	112	0.0	1014.3	0	0.000	0.0
20100214 00:25	-4.9	-4.9	-4.9	81	-7.7	5	8	68	0.0	1014.3	0	0.000	0.0
20100214 00:30	-4.9	-4.9	-4.9	81	-7.6	2	6	68	0.0	1014.3	0	0.000	0.0
20100214 00:35	-4.9	-4.9	-4.9	81	-7.6	2	3	68	0.0	1014.3	0	0.000	0.0
20100214 00:40	-4.9	-4.9	-4.9	81	-7.7	2	3	68	0.0	1014.3	0	0.000	0.0
20100214 00:45	-4.9	-4.9	-4.9	81	-7.7	3	6	68	0.0	1014.3	0	0.000	0.0
20100214 00:50	-4.9	-4.9	-4.9	81	-7.7	2	5	68	0.0	1014.2	0	0.000	0.0
20100214 00:55	-5.0	-5.0	-5.0	81	-7.7	0	3	68	0.0	1014.2	0	0.000	0.0
20100214 01:00	-5.0	-5.0	-5.0	82	-7.6	2	5	68	0.0	1014.3	0	0.000	0.0
20100214 01:05	-5.0	-5.0	-5.0	82	-7.6	0	5	68	0.0	1014.2	0	0.000	0.0
20100214 01:10	-5.1	-5.1	-5.1	82	-7.6	3	6	68	0.0	1014.2	0	0.000	0.0
20100214 01:15	-5.1	-5.1	-5.1	82	-7.6	3	5	90	0.0	1014.1	0	0.000	0.0
20100214 01:20	-5.1	-5.1	-5.1	82	-7.6	3	5	90	0.0	1014.1	0	0.000	0.0
20100214 01:25	-5.1	-5.1	-5.1	82	-7.6	0	2	90	0.0	1014.0	0	0.000	0.0
20100214 01:30	-5.1	-5.1	-5.1	82	-7.6	0	3	90	0.0	1014.0	0	0.000	0.0
20100214 01:35	-5.1	-5.1	-5.1	82	-7.6	2	5	90	0.0	1014.0	0	0.000	0.0
20100214 01:40	-5.1	-5.1	-5.1	82	-7.6	0	2	90	0.0	1014.0	0	0.000	0.0
20100214 01:45	-5.1	-5.1	-5.1	83	-7.5	0	3	90	0.0	1014.0	0	0.000	0.0
20100214 01:50	-5.1	-5.1	-5.1	83	-7.5	0	3	90	0.0	1014.0	0	0.000	0.0
20100214 01:55	-5.1	-5.1	-5.1	82	-7.6	0	0	-100000	0.0	1014.0	0	0.000	0.0
20100214 02:00	-5.0	-5.0	-5.0	82	-7.6	0	0	-100000	0.0	1014.0	0	0.000	0.0
20100214 02:05	-5.1	-5.1	-5.1	82	-7.6	0	3	90	0.0	1013.9	0	0.000	0.0
20100214 02:10	-5.0	-5.0	-5.0	83	-7.4	0	3	90	0.0	1013.9	0	0.000	0.0
20100214 02:15	-5.1	-5.1	-5.1	82	-7.6	0	3	90	0.0	1013.8	0	0.000	0.0
20100214 02:20	-5.1	-5.1	-5.1	82	-7.6	0	3	90	0.0	1013.9	0	0.000	0.0
20100214 02:25	-5.0	-5.0	-5.0	82	-7.6	0	0	-100000	0.0	1013.9	0	0.000	0.0
20100214 02:30	-5.0	-5.0	-5.0	89	-6.5	0	0	-100000	0.0	1013.9	0	0.000	0.0
20100214 02:35	-5.0	-5.0	-5.0	82	-7.6	0	0	-100000	0.0	1013.8	0	0.000	0.0
20100214 02:40	-5.0	-5.0	-5.0	82	-7.6	0	0	-100000	0.0	1013.8	0	0.000	0.0
20100214 02:45	-5.0	-5.0	-5.0	82	-7.6	0	0	-100000	0.0	1013.7	0	0.000	0.0
20100214 02:50	-5.0	-5.0	-5.0	82	-7.6	0	0	-100000	0.0	1013.7	0	0.000	0.0
20100214 02:55	-5.1	-5.1	-5.1	82	-7.6	2	3	90	0.0	1013.7	0	0.000	0.0
20100214 03:00	-5.1	-5.1	-5.1	82	-7.6	0	2	90	0.0	1013.6	0	0.000	0.0
20100214 03:05	-5.1	-5.1	-5.1	83	-7.5	0	0	-100000	0.0	1013.6	0	0.000	0.0
20100214 03:10	-5.1	-5.1	-5.1	83	-7.5	0	2	90	0.0	1013.6	0	0.000	0.0
20100214 03:15	-5.2	-5.2	-5.2	83	-7.6	0	0	-100000	0.0	1013.6	0	0.000	0.0
20100214 03:20	-5.1	-5.1	-5.1	83	-7.5	0	3	90	0.0	1013.4	0	0.000	0.0
20100214 03:25	-5.1	-5.1	-5.1	83	-7.5	0	3	90	0.0	1013.4	0	0.000	0.0
20100214 03:30	-5.2	-5.2	-5.2	83	-7.6	2	3	90	0.0	1013.4	0	0.000	0.0
20100214 03:35	-5.2	-5.2	-5.2	83	-7.6	2	3	90	0.0	1013.5	0	0.000	0.0
20100214 03:40	-5.2	-5.2	-5.2	83	-7.6	0	2	90	0.0	1013.5	0	0.000	0.0
20100214 03:45	-5.2	-5.2	-5.2	83	-7.6	0	3	90	0.0	1013.5	0	0.000	0.0
20100214 03:50	-5.2	-5.2	-5.2	83	-7.6	2	5	90	0.0	1013.4	0	0.000	0.0
20100214 03:55	-5.2	-5.2	-5.2	83	-7.6	0	3	90	0.0	1013.4	0	0.000	0.0
20100214 04:00	-5.2	-5.2	-5.2	83	-7.6	2	3	90	0.0	1013.4	0	0.000	0.0
20100214 04:05	-5.2	-5.2	-5.2	83	-7.6	2	3	90	0.0	1013.6	0	0.000	0.0
20100214 04:10	-5.3	-5.3	-5.3	83	-7.7	0	5	90	0.0	1013.6	0	0.000	0.0
20100214 04:15	-5.3	-5.3	-5.3	83	-7.8	2	5	90	0.0	1013.6	0	0.000	0.0
20100214 04:20	-5.3	-5.3	-5.3	83	-7.7	0	3	90	0.0	1013.7	0	0.000	0.0
20100214 04:25	-5.3	-5.3	-5.3	84	-7.5	2	5	90	0.0	1013.6	0	0.000	0.0
20100214 04:30	-5.3	-5.3	-5.3	83	-7.7	2	3	90	0.0	1013.6	0	0.000	0.0
20100214 04:35	-5.2	-5.2	-5.2	84	-7.5	0	0	-100000	0.0	1013.6	0	0.000	0.0
20100214 04:40	-5.2	-5.2	-5.2	84	-7.4	0	0	-100000	0.0	1013.6	0	0.000	0.0
20100214 04:45	-5.1	-5.1	-5.1	84	-7.4	0	0	-100000	0.0	1013.6	0	0.000	0.0
20100214 04:50	-5.1	-5.1	-5.1	82	-7.7	0	2	90	0.0	1013.6	0	0.000	0.0
20100214 04:55	-5.1	-5.1	-5.1	80	-8.0	2	3	90	0.0	1013.6	0	0.000	0.0
20100214 05:00	-5.1	-5.1	-5.1	81	-7.8	0	3	90	0.0	1013.7	0	0.000	0.0
20100214 05:05	-5.1	-5.1	-5.1	82	-7.6	0	5	90	0.0	1013.7	0	0.000	0.0
20100214 05:10	-5.1	-5.1	-5.1	81	-7.8	2	5	90	0.0	1013.7	0	0.000	0.0
20100214 05:15	-5.1	-5.1	-5.1	80	-8.0	0	3	90	0.0	1013.8	0	0.000	0.0
20100214 05:20	-5.1	-5.1	-5.1	81	-7.9	0	3	90	0.0	1013.8	0	0.000	0.0
20100214 05:25	-5.1	-5.1	-5.1	81	-7.9	0	2	90	0.0	1013.8	0	0.000	0.0
20100214 05:30	-5.2	-5.2	-5.2	82	-7.8	2	5	90	0.0	1013.8	0	0.000	0.0
20100214 05:35	-5.2	-5.2	-5.2	82	-7.8	2	5	90	0.0	1013.9	0	0.000	0.0
20100214 05:40	-5.3	-5.3	-5.3	83	-7.7	0	2	90	0.0	1013.8	0	0.000	0.0
20100214 05:45	-5.3	-5.3	-5.3	82	-7.9	0	0	-100000	0.0	1013.8	0	0.000	0.0
20100214 05:50	-5.3	-5.3	-5.3	83	-7.8	0	0	-100000	0.0	1013.9	0	0.000	0.0
20100214 05:55	-5.3	-5.3	-5.3	83	-7.8	0	2	90	0.0	1013.9	0	0.000	0.0
20100214 06:00	-5.3	-5.3	-5.3	83	-7.8	0	0	-100000	0.0	1013.9	0	0.000	0.0
20100214 06:05	-5.3	-5.3	-5.3	83	-7.8	0	0	-100000	0.0	1013.9	0	0.000	0.0
20100214 06:10	-5.3	-5.3	-5.3	83	-7.8	0	0	-100000	0.0	1013.8	0	0.000	0.0
20100214 06:15	-5.4	-5.4	-5.4	84	-7.7	0	0	-100000	0.0	1013.8	0	0.000	0.0
20100214 06:20	-5.4	-5.4	-5.4	84	-7.7	0	0	-100000	0.0	1013.8	0	0.000	0.0
20100214 06:25	-5.4	-5.4	-5.4	84	-7.7	0	0	-100000	0.0	1013.7	0	0.000	0.0
20100214 06:30	-5.4	-5.4	-5.4	84	-7.7	0	0	-100000	0.0	1013.8	0	0.000	0.0
20100214 06:35	-5.4	-5.4	-5.4	84	-7.7	0	0	-100000	0.0	1013.8	0	0.000	0.0
20100214 06:40	-5.4	-5.4	-5.4	84	-7.7	0	0	-100000	0.0	1013.8	0	0.000	0.0
20100214 06:45	-5.4	-5.4	-5.4	84	-7.7	0	3	90	0.0	1013.8	0	0.000	0.0
20100214 06:50	-5.4	-5.4	-5.4	83	-7.8	0	2	90	0.0	1013.9	0	0.000	0.0
20100214 06:55	-5.3	-5.3	-5.3	82	-7.9	0	3	90	0.0	1013.9	0	0.000	0.0
20100214 07:00	-5.3	-5.3	-5.3	82	-7.9	0	3	90	0.0	1013.8	0	0.000	0.0
20100214 07:05	-5.3	-5.3	-5.3	80	-8.2	5	8	45	0.0	1014.0	0	0.000	0.0
20100214 07:10	-5.3	-5.3	-5.3	80	-8.2	0	0	-100000	0.0	1014.0	0	0.000	0.0
20100214 07:15	-5.2	-5.2	-5.2	80	-8.1	0	3	45	0.0	1014.0	0	0.000	0.0
20100214 07:20	-5.2	-5.2	-5.2	80	-8.1	0	3	45	0.0	1014.0	0	0.000	0.0
20100214 07:25	-5.2	-5.2	-5.2	81	-8.0	0	3	45	0.0	1013.9	0	0.000	0.0
20100214 07:30	-5.2	-5.2	-5.2	80	-8.1	0	0	-100000	0.0	1014.0	0	0.000	0.0
20100214 07:35	-5.2	-5.2	-5.2	80	-8.1	0	0	-100000	0.0	1014.1	0	0.000	0.0
20100214 07:40	-5.2	-5.2	-5.2	80	-8.1	0	3	45	0.0	1014.1	2	0.000	0.0
20100214 07:45	-5.2	-5.2	-5.2	81	-8.0	0	3	45	0.0	1014.1	5	0.000	0.0
20100214 07:50	-5.3	-5.3	-5.3	81	-8.0	0	3	45	0.0	1014.1	7	0.000	0.0
20100214 07:55	-5.3	-5.3	-5.3	80	-8.2	3	8	135	0.0	1014.1	10	0.000	0.0
20100214 08:00	-5.3	-5.3	-5.3	80	-8.2	2	5	135	0.0	1014.1	12	0.000	0.0
20100214 08:05	-5.2	-5.2	-5.2	80	-8.1	2	3	135	0.0	1014.1	14	0.000	0.0
20100214 08:10	-5.2	-5.2	-5.2	80	-8.1	2	5	135	0.0	1014.2	16	0.000	0.0
20100214 08:15	-5.2	-5.2	-5.2	80	-8.1	0	3	135	0.0	1014.1	19	0.000	0.0
20100214 08:20	-5.2	-5.2	-5.2	80	-8.1	2	3	135	0.0	1014.2	22	0.000	0.0
20100214 08:25	-5.2	-5.2	-5.2	81	-7.9	2	3	135	0.0	1014.2	24	0.000	0.0
20100214 08:30	-5.2	-5.2	-5.2	81	-7.9	2	5	135	0.0	1014.2	28	0.000	0.0
20100214 08:35	-5.2	-5.2	-5.2	81	-8.0	0	3	135	0.0	1014.2	31	0.000	0.0
20100214 08:40	-5.2	-5.2	-5.2	81	-8.0	0	3	135	0.0	1014.2	34	0.000	0.0
20100214 08:45	-5.2	-5.2	-5.2	81	-7.9	0	0	-100000	0.0	1014.2	38	0.000	0.0
20100214 08:50	-5.2	-5.2	-5.2	81	-8.0	0	2	135	0.0	1014.2	42	0.000	0.0
20100214 08:55	-5.2	-5.2	-5.2	81	-8.0	0	3	135	0.0	1014.2	47	0.000	0.0
20100214 09:00	-5.2	-5.2	-5.2	81	-8.0	2	5	135	0.0	1014.2	52	0.000	0.0
20100214 09:05	-5.2	-5.2	-5.2	81	-8.0	2	5	135	0.0	1014.1	56	0.000	0.0
20100214 09:10	-5.3	-5.3	-5.3	81	-8.0	3	6	135	0.0	1014.2	60	0.000	0.0
20100214 09:15	-5.3	-5.3	-5.3	81	-8.0	3	5	135	0.0	1014.2	63	0.000	0.0
20100214 09:20	-5.3	-5.3	-5.3	82	-7.9	3	5	135	0.0	1014.2	68	0.000	0.0
20100214 09:25	-5.3	-5.3	-5.3	82	-7.9	3	6	135	0.0	1014.2	72	0.000	0.0
20100214 09:30	-5.3	-5.3	-5.3	82	-7.9	3	6	135	0.0	1014.2	76	0.000	0.0
20100214 09:35	-5.3	-5.3	-5.3	83	-7.7	2	5	135	0.0	1014.2	79	0.000	0.0
20100214 09:40	-5.3	-5.3	-5.3	83	-7.7	3	5	135	0.0	1014.2	84	0.000	0.0
20100214 09:45	-5.3	-5.3	-5.3	83	-7.7	2	3	135	0.0	1014.2	89	0.000	0.0
20100214 09:50	-5.3	-5.3	-5.3	83	-7.7	0	2	135	0.0	1014.2	98	0.000	0.0
20100214 09:55	-5.2	-5.2	-5.2	83	-7.6	2	5	135	0.0	1014.2	104	0.000	0.0
20100214 10:00	-5.2	-5.2	-5.2	84	-7.5	2	3	135	0.0	1014.2	105	0.025	0.0
20100214 10:05	-5.2	-5.2	-5.2	84	-7.4	2	5	135	0.0	1014.2	109	0.000	0.3
20100214 10:10	-5.1	-5.1	-5.1	84	-7.4	2	5	135	0.0	1014.3	116	0.000	0.5
20100214 10:15	-5.1	-5.1	-5.1	84	-7.3	3	6	135	0.0	1014.2	126	0.000	0.6
20100214 10:20	-5.1	-5.1	-5.1	84	-7.4	5	6	135	0.0	1014.3	135	0.000	0.6
20100214 10:25	-5.1	-5.1	-5.1	84	-7.3	3	5	135	0.0	1014.3	143	0.000	0.7
20100214 10:30	-5.1	-5.1	-5.1	84	-7.3	5	6	135	0.0	1014.3	156	0.000	0.7
20100214 10:35	-5.1	-5.1	-5.1	84	-7.3	3	6	135	0.0	1014.3	166	0.000	0.8
20100214 10:40	-5.0	-5.0	-5.0	84	-7.3	5	6	135	0.0	1014.3	177	0.000	0.8
20100214 10:45	-5.1	-5.1	-5.1	83	-7.5	5	8	135	0.0	1014.2	187	0.000	0.9
20100214 10:50	-5.0	-5.0	-5.0	83	-7.4	5	6	135	0.0	1014.3	196	0.000	1.0
20100214 10:55	-4.9	-4.9	-4.9	84	-7.2	3	6	135	0.0	1014.3	213	0.000	1.1
20100214 11:00	-4.8	-4.8	-4.8	84	-7.1	2	5	135	0.0	1014.3	233	0.051	1.2
20100214 11:05	-4.7	-4.7	-4.7	84	-7.0	3	5	135	0.0	1014.3	239	0.000	1.2
20100214 11:10	-4.5	-4.5	-4.5	83	-6.9	3	5	135	0.0	1014.3	241	0.000	1.2
20100214 11:15	-4.5	-4.5	-4.5	82	-7.1	3	6	135	0.0	1014.3	241	0.000	1.2
20100214 11:20	-4.4	-4.4	-4.4	82	-7.0	3	6	135	0.0	1014.3	238	0.000	1.2
20100214 11:25	-4.4	-4.4	-4.4	82	-7.0	2	5	135	0.0	1014.2	249	0.000	1.3
20100214 11:30	-4.3	-4.3	-4.3	81	-7.1	2	5	135	0.0	1014.2	266	0.000	1.4
20100214 11:35	-4.3	-4.3	-4.3	81	-7.0	2	5	135	0.0	1014.1	264	0.000	1.4
20100214 11:40	-4.2	-4.2	-4.2	80	-7.1	3	6	135	0.0	1014.1	269	0.000	1.4
20100214 11:45	-4.3	-4.3	-4.3	78	-7.5	3	6	135	0.0	1014.0	277	0.000	1.5
20100214 11:50	-4.3	-4.3	-4.3	79	-7.4	5	8	135	0.0	1014.0	271	0.000	1.5
20100214 11:55	-4.3	-4.3	-4.3	80	-7.2	3	6	135	0.0	1014.0	264	0.000	1.4
20100214 12:00	-4.3	-4.3	-4.3	80	-7.2	5	6	135	0.0	1014.0	255	0.076	1.4
20100214 12:05	-4.3	-4.3	-4.3	79	-7.4	3	6	135	0.0	1014.0	246	0.000	1.3
20100214 12:10	-4.3	-4.3	-4.3	80	-7.3	5	6	135	0.0	1014.0	235	0.000	1.3
20100214 12:15	-4.3	-4.3	-4.3	79	-7.4	3	5	135	0.0	1013.9	229	0.000	1.3
20100214 12:20	-4.3	-4.3	-4.3	79	-7.4	3	5	135	0.0	1013.9	232	0.000	1.3
20100214 12:25	-4.3	-4.3	-4.3	78	-7.6	5	6	135	0.0	1013.8	233	0.000	1.3
20100214 12:30	-4.3	-4.3	-4.3	79	-7.4	5	6	135	0.0	1013.8	228	0.000	1.2
20100214 12:35	-4.3	-4.3	-4.3	79	-7.4	5	6	135	0.0	1013.8	221	0.000	1.2
20100214 12:40	-4.3	-4.3	-4.3	78	-7.6	5	6	135	0.0	1013.8	209	0.000	1.1
20100214 12:45	-4.4	-4.4	-4.4	79	-7.5	5	6	135	0.0	1013.8	202	0.000	1.1
20100214 12:50	-4.4	-4.4	-4.4	79	-7.5	5	6	135	0.0	1013.8	206	0.000	1.1
20100214 12:55	-4.4	-4.4	-4.4	80	-7.3	5	6	135	0.0	1013.7	218	0.000	1.2
20100214 13:00	-4.4	-4.4	-4.4	80	-7.4	3	6	135	0.0	1013.7	225	0.076	1.2
20100214 13:05	-4.4	-4.4	-4.4	81	-7.2	3	6	135	0.0	1013.6	229	0.000	1.2
20100214 13:10	-4.4	-4.4	-4.4	81	-7.1	3	5	135	0.0	1013.7	230	0.000	1.2
20100214 13:15	-4.3	-4.3	-4.3	81	-7.0	3	5	135	0.0	1013.7	230	0.000	1.2
20100214 13:20	-4.2	-4.2	-4.2	79	-7.3	3	5	135	0.0	1013.6	231	0.000	1.2
20100214 13:25	-4.2	-4.2	-4.2	80	-7.1	2	5	135	0.0	1013.5	229	0.000	1.2
20100214 13:30	-4.0	-4.0	-4.0	80	-6.9	2	5	135	0.0	1013.4	222	0.000	1.2
20100214 13:35	-3.9	-3.9	-3.9	77	-7.3	2	5	135	0.0	1013.4	214	0.000	1.1
20100214 13:40	-3.9	-3.9	-3.9	77	-7.3	2	5	135	0.0	1013.4	207	0.000	1.1
20100214 13:45	-4.0	-4.0	-4.0	77	-7.4	2	5	135	0.0	1013.3	200	0.000	1.0
20100214 13:50	-4.0	-4.0	-4.0	78	-7.3	2	5	135	0.0	1013.3	195	0.000	1.0
20100214 13:55	-3.9	-3.9	-3.9	78	-7.2	3	5	135	0.0	1013.3	188	0.000	1.0
20100214 14:00	-3.8	-3.8	-3.8	78	-7.0	0	3	135	0.0	1013.3	182	0.051	0.9
20100214 14:05	-3.8	-3.8	-3.8	77	-7.2	3	5	135	0.0	1013.3	177	0.000	0.9
20100214 14:10	-3.8	-3.8	-3.8	76	-7.4	3	5	135	0.0	1013.3	173	0.000	0.9
20100214 14:15	-4.0	-4.0	-4.0	75	-7.8	3	6	135	0.0	1013.2	170	0.000	0.8
20100214 14:20	-4.2	-4.2	-4.2	76	-7.8	3	6	135	0.0	1013.2	165	0.000	0.8
20100214 14:25	-4.2	-4.2	-4.2	76	-7.8	2	5	135	0.0	1013.2	161	0.000	0.8
20100214 14:30	-4.2	-4.2	-4.2	76	-7.8	3	6	135	0.0	1013.1	156	0.000	0.7
20100214 14:35	-4.2	-4.2	-4.2	77	-7.6	3	6	135	0.0	1013.0	155	0.000	0.7
20100214 14:40	-4.3	-4.3	-4.3	77	-7.7	5	6	135	0.0	1013.2	153	0.000	0.7
20100214 14:45	-4.4	-4.4	-4.4	77	-7.9	3	5	135	0.0	1013.2	150	0.000	0.7
20100214 14:50	-4.5	-4.5	-4.5	78	-7.7	3	5	135	0.0	1013.1	145	0.000	0.6
20100214 14:55	-4.5	-4.5	-4.5	79	-7.6	2	3	135	0.0	1013.1	141	0.000	0.6
20100214 15:00	-4.6	-4.6	-4.6	78	-7.8	3	5	135	0.0	1013.1	137	0.051	0.6
20100214 15:05	-4.6	-4.6	-4.6	79	-7.6	3	5	135	0.0	1013.2	131	0.000	0.5
20100214 15:10	-4.6	-4.6	-4.6	79	-7.6	2	3	135	0.0	1013.2	125	0.000	0.5
20100214 15:15	-4.6	-4.6	-4.6	80	-7.5	3	6	135	0.0	1013.1	122	0.000	0.5
20100214 15:20	-4.6	-4.6	-4.6	80	-7.5	3	6	135	0.0	1013.2	116	0.000	0.4
20100214 15:25	-4.6	-4.6	-4.6	81	-7.4	3	5	135	0.0	1013.2	109	0.000	0.0
20100214 15:30	-4.6	-4.6	-4.6	81	-7.4	3	5	135	0.0	1013.2	103	0.000	0.0
20100214 15:35	-4.6	-4.6	-4.6	80	-7.5	3	5	135	0.0	1013.2	99	0.000	0.0
20100214 15:40	-4.7	-4.7	-4.7	79	-7.7	3	5	135	0.0	1013.1	95	0.000	0.0
20100214 15:45	-4.7	-4.7	-4.7	79	-7.7	3	5	135	0.0	1013.1	91	0.000	0.0
20100214 15:50	-4.7	-4.7	-4.7	79	-7.8	3	5	135	0.0	1013.2	84	0.000	0.0
20100214 15:55	-4.8	-4.8	-4.8	79	-7.9	3	6	135	0.0	1013.1	77	0.000	0.0
20100214 16:00	-4.8	-4.8	-4.8	79	-7.9	3	5	135	0.0	1013.1	71	0.025	0.0
20100214 16:05	-4.8	-4.8	-4.8	79	-7.9	3	5	135	0.0	1013.1	65	0.000	0.0
20100214 16:10	-4.8	-4.8	-4.8	79	-7.9	3	5	135	0.0	1013.1	60	0.000	0.0
20100214 16:15	-4.8	-4.8	-4.8	79	-7.9	3	5	135	0.0	1013.1	54	0.000	0.0
20100214 16:20	-4.8	-4.8	-4.8	79	-7.9	3	5	135	0.0	1013.1	49	0.000	0.0
20100214 16:25	-4.9	-4.9	-4.9	80	-7.8	3	5	135	0.0	1013.1	46	0.000	0.0
20100214 16:30	-4.9	-4.9	-4.9	81	-7.7	3	5	135	0.0	1013.1	42	0.000	0.0
20100214 16:35	-4.9	-4.9	-4.9	81	-7.7	3	5	135	0.0	1013.0	38	0.000	0.0
20100214 16:40	-4.9	-4.9	-4.9	81	-7.7	2	5	135	0.0	1013.0	34	0.000	0.0
20100214 16:45	-5.0	-5.0	-5.0	82	-7.6	3	3	135	0.0	1013.0	30	0.000	0.0
20100214 16:50	-5.0	-5.0	-5.0	89	-6.5	2	5	135	0.0	1013.0	27	0.000	0.0
20100214 16:55	-5.0	-5.0	-5.0	82	-7.6	3	5	135	0.0	1013.0	23	0.000	0.0
20100214 17:00	-5.1	-5.1	-5.1	83	-7.5	3	5	135	0.0	1013.0	19	0.025	0.0
20100214 17:05	-5.1	-5.1	-5.1	83	-7.5	2	5	135	0.0	1013.1	16	0.000	0.0
20100214 17:10	-5.1	-5.1	-5.1	83	-7.5	2	3	135	0.0	1013.2	12	0.000	0.0
20100214 17:15	-5.2	-5.2	-5.2	83	-7.6	3	5	135	0.0	1013.2	10	0.000	0.0
20100214 17:20	-5.2	-5.2	-5.2	84	-7.4	3	6	135	0.0	1013.2	7	0.000	0.0
20100214 17:25	-5.2	-5.2	-5.2	83	-7.6	3	5	135	0.0	1013.3	3	0.000	0.0
20100214 17:30	-5.3	-5.3	-5.3	84	-7.5	2	3	135	0.0	1013.2	0	0.000	0.0
20100214 17:35	-5.3	-5.3	-5.3	84	-7.5	0	2	135	0.0	1013.3	0	0.000	0.0
20100214 17:40	-5.3	-5.3	-5.3	84	-7.5	0	0	-100000	0.0	1013.3	0	0.000	0.0
20100214 17:45	-5.3	-5.3	-5.3	84	-7.5	0	2	135	0.0	1013.2	0	0.000	0.0
20100214 17:50	-5.3	-5.3	-5.3	84	-7.6	0	0	-100000	0.0	1013.2	0	0.000	0.0
20100214 17:55	-5.3	-5.3	-5.3	84	-7.6	0	2	135	0.0	1013.2	0	0.000	0.0
20100214 18:00	-5.4	-5.4	-5.4	85	-7.5	0	3	135	0.0	1013.3	0	0.000	0.0
20100214 18:05	-5.4	-5.4	-5.4	85	-7.5	2	3	135	0.0	1013.3	0	0.000	0.0
20100214 18:10	-5.4	-5.4	-5.4	85	-7.5	0	2	135	0.0	1013.3	0	0.000	0.0
20100214 18:15	-5.4	-5.4	-5.4	86	-7.4	0	0	-100000	0.0	1013.3	0	0.000	0.0
20100214 18:20	-5.4	-5.4	-5.4	86	-7.4	0	0	-100000	0.0	1013.4	0	0.000	0.0
20100214 18:25	-5.3	-5.3	-5.3	85	-7.5	0	2	135	0.0	1013.4	0	0.000	0.0
20100214 18:30	-5.4	-5.4	-5.4	85	-7.5	0	0	-100000	0.0	1013.4	0	0.000	0.0
20100214 18:35	-5.4	-5.4	-5.4	85	-7.6	0	0	-100000	0.0	1013.3	0	0.000	0.0
20100214 18:40	-5.4	-5.4	-5.4	84	-7.7	0	3	135	0.0	1013.4	0	0.000	0.0
20100214 18:45	-5.4	-5.4	-5.4	85	-7.6	0	0	-100000	0.0	1013.4	0	0.000	0.0
20100214 18:50	-5.4	-5.4	-5.4	84	-7.7	0	3	135	0.0	1013.4	0	0.000	0.0
20100214 18:55	-5.4	-5.4	-5.4	84	-7.7	0	2	135	0.0	1013.5	0	0.000	0.0
20100214 19:00	-5.4	-5.4	-5.4	84	-7.7	0	3	135	0.0	1013.5	0	0.000	0.0
20100214 19:05	-5.4	-5.4	-5.4	84	-7.7	0	2	135	0.0	1013.5	0	0.000	0.0
20100214 19:10	-5.5	-5.5	-5.5	84	-7.8	0	3	135	0.0	1013.5	0	0.000	0.0
20100214 19:15	-5.5	-5.5	-5.5	84	-7.8	2	3	135	0.0	1013.5	0	0.000	0.0
20100214 19:20	-5.6	-5.6	-5.6	84	-7.8	2	5	135	0.0	1013.6	0	0.000	0.0
20100214 19:25	-5.6	-5.6	-5.6	84	-7.8	2	6	135	0.0	1013.6	0	0.000	0.0
20100214 19:30	-5.6	-5.6	-5.6	85	-7.7	3	6	135	0.0	1013.5	0	0.000	0.0
20100214 19:35	-5.6	-5.6	-5.6	85	-7.7	5	6	135	0.0	1013.5	0	0.000	0.0
20100214 19:40	-5.6	-5.6	-5.6	85	-7.7	5	6	135	0.0	1013.6	0	0.000	0.0
20100214 19:45	-5.7	-5.7	-5.7	85	-7.8	5	6	135	0.0	1013.6	0	0.000	0.0
20100214 19:50	-5.7	-5.7	-5.7	86	-7.6	3	5	135	0.0	1013.7	0	0.000	0.0
20100214 19:55	-5.6	-5.6	-5.6	86	-7.6	3	6	135	0.0	1013.7	0	0.000	0.0
20100214 20:00	-5.6	-5.6	-5.6	86	-7.6	3	6	135	0.0	1013.7	0	0.000	0.0
20100214 20:05	-5.6	-5.6	-5.6	86	-7.6	2	5	135	0.0	1013.7	0	0.000	0.0
20100214 20:10	-5.6	-5.6	-5.6	86	-7.6	2	5	135	0.0	1013.7	0	0.000	0.0
20100214 20:15	-5.6	-5.6	-5.6	86	-7.6	3	6	135	0.0	1013.7	0	0.000	0.0
20100214 20:20	-5.6	-5.6	-5.6	86	-7.6	0	3	135	0.0	1013.7	0	0.000	0.0
20100214 20:25	-5.6	-5.6	-5.6	86	-7.6	0	3	135	0.0	1013.7	0	0.000	0.0
20100214 20:30	-5.7	-5.7	-5.7	86	-7.6	0	3	135	0.0	1013.7	0	0.000	0.0
20100214 20:35	-5.7	-5.7	-5.7	86	-7.6	0	0	-100000	0.0	1013.7	0	0.000	0.0
20100214 20:40	-5.7	-5.7	-5.7	86	-7.6	0	0	-100000	0.0	1013.7	0	0.000	0.0
20100214 20:45	-5.7	-5.7	-5.7	87	-7.5	2	5	135	0.0	1013.7	0	0.000	0.0
20100214 20:50	-5.6	-5.6	-5.6	86	-7.6	2	5	135	0.0	1013.7	0	0.000	0.0
20100214 20:55	-5.6	-5.6	-5.6	86	-7.5	2	5	135	0.0	1013.7	0	0.000	0.0
20100214 21:00	-5.6	-5.6	-5.6	86	-7.5	2	5	135	0.0	1013.6	0	0.000	0.0
20100214 21:05	-5.6	-5.6	-5.6	86	-7.5	2	5	135	0.0	1013.6	0	0.000	0.0
20100214 21:10	-5.6	-5.6	-5.6	86	-7.5	2	5	135	0.0	1013.6	0	0.000	0.0
20100214 21:15	-5.6	-5.6	-5.6	86	-7.5	2	5	135	0.0	1013.7	0	0.000	0.0
20100214 21:20	-5.6	-5.6	-5.6	86	-7.5	2	5	135	0.0	1013.8	0	0.000	0.0
20100214 21:25	-5.6	-5.6	-5.6	86	-7.5	2	5	135	0.0	1013.7	0	0.000	0.0
20100214 21:30	-5.6	-5.6	-5.6	86	-7.5	2	5	135	0.0	1013.8	0	0.000	0.0
20100214 21:35	-5.6	-5.6	-5.6	86	-7.5	2	3	135	0.0	1013.7	0	0.000	0.0
20100214 21:40	-5.6	-5.6	-5.6	85	-7.7	2	5	135	0.0	1013.6	0	0.000	0.0
20100214 21:45	-5.6	-5.6	-5.6	85	-7.7	2	3	135	0.0	1013.6	0	0.000	0.0
20100214 21:50	-5.6	-5.6	-5.6	85	-7.7	2	3	135	0.0	1013.6	0	0.000	0.0
20100214 21:55	-5.6	-5.6	-5.6	85	-7.7	2	3	135	0.0	1013.6	0	0.000	0.0
20100214 22:00	-5.6	-5.6	-5.6	85	-7.7	3	5	135	0.0	1013.6	0	0.000	0.0
20100214 22:05	-5.7	-5.7	-5.7	85	-7.8	0	3	135	0.0	1013.5	0	0.000	0.0
20100214 22:10	-5.7	-5.7	-5.7	86	-7.6	0	3	135	0.0	1013.5	0	0.000	0.0
20100214 22:15	-5.7	-5.7	-5.7	86	-7.6	0	3	135	0.0	1013.4	0	0.000	0.0
20100214 22:20	-5.7	-5.7	-5.7	86	-7.7	0	3	135	0.0	1013.4	0	0.000	0.0
20100214 22:25	-5.7	-5.7	-5.7	86	-7.7	2	5	135	0.0	1013.4	0	0.000	0.0
20100214 22:30	-5.7	-5.7	-5.7	86	-7.7	0	3	135	0.0	1013.3	0	0.000	0.0
20100214 22:35	-5.7	-5.7	-5.7	86	-7.7	2	3	135	0.0	1013.4	0	0.000	0.0
20100214 22:40	-5.7	-5.7	-5.7	85	-7.8	2	5	135	0.0	1013.3	0	0.000	0.0
20100214 22:45	-5.7	-5.7	-5.7	85	-7.8	2	5	135	0.0	1013.3	0	0.000	0.0
20100214 22:50	-5.7	-5.7	-5.7	85	-7.8	2	5	135	0.0	1013.3	0	0.000	0.0
20100214 22:55	-5.7	-5.7	-5.7	85	-7.8	2	5	135	0.0	1013.3	0	0.000	0.0
20100214 23:00	-5.7	-5.7	-5.7	85	-7.8	0	5	135	0.0	1013.3	0	0.000	0.0
20100214 23:05	-5.7	-5.7	-5.7	85	-7.8	2	6	135	0.0	1013.1	0	0.000	0.0
20100214 23:10	-5.7	-5.7	-5.7	85	-7.8	2	3	135	0.0	1013.0	0	0.000	0.0
20100214 23:15	-5.8	-5.8	-5.8	85	-7.9	0	2	135	0.0	1013.0	0	0.000	0.0
20100214 23:20	-5.8	-5.8	-5.8	85	-7.9	2	3	135	0.0	1013.0	0	0.000	0.0
20100214 23:25	-5.8	-5.8	-5.8	85	-7.9	2	5	135	0.0	1013.0	0	0.000	0.0
20100214 23:30	-5.8	-5.8	-5.8	85	-7.9	3	5	135	0.0	1013.0	0	0.000	0.0
20100214 23:35	-5.8	-5.8	-5.8	85	-7.9	2	3	135	0.0	1012.9	0	0.000	0.0
20100214 23:40	-5.9	-5.9	-5.9	85	-8.0	0	3	135	0.0	1012.9	0	0.000	0.0
20100214 23:45	-5.9	-5.9	-5.9	85	-8.0	0	2	135	0.0	1013.0	0	0.000	0.0
20100214 23:50	-5.9	-5.9	-5.9	85	-8.0	3	5	135	0.0	1013.0	0	0.000	0.0
20100214 23:55	-5.9	-5.9	-5.9	85	-8.0	2	5	135	0.0	1013.0	0	0.000	0.0



Please note the license to use and transfer of this data:
http://creativecommons.org/licenses/by-nc-sa/3.0/deed.en

Bitte beachten sie die Lizenz zur Verwertung und Weitergabe der Daten:
http://creativecommons.org/licenses/by-nc-sa/3.0/deed.de

zurück zur Übersicht der Archivdaten (Monats und Tagesdaten)

Cookies helfen bei der Bereitstellung von Inhalten. Durch die Nutzung dieser Seiten erklärst du dich damit einverstanden, dass Cookies auf deinem Rechner gespeichert werden. Weitere Information